Time;durP1;ratioP1;P1;durP2;ratioP2;P2;SDS_P1;SDS_P2;PMS_P1;PMS_P2;Temp;Humidity;BMP_temperature;BMP_pressure;BME280_temperature;BME280_humidity;BME280_pressure;Samples;Min_cycle;Max_cycle;Signal;HPM_P1;HPM_P2
2021/05/19 00:02:05;;;;;;;17.90;11.93;;;;;;;8.81;79.26;96639.60;1715703;81;25599;-88
2021/05/19 00:04:32;;;;;;;20.72;11.55;;;;;;;8.85;79.25;96631.38;1719652;81;27360;-86
2021/05/19 00:06:58;;;;;;;15.75;11.00;;;;;;;8.87;79.27;96628.77;1715559;81;25728;-88
2021/05/19 00:09:25;;;;;;;18.55;10.80;;;;;;;8.87;79.26;96632.81;1719136;81;26179;-88
2021/05/19 00:11:52;;;;;;;19.07;11.33;;;;;;;8.90;79.27;96631.03;1716121;81;26722;-86
2021/05/19 00:14:19;;;;;;;24.80;13.43;;;;;;;8.87;79.25;96635.50;1734795;80;26370;-87
2021/05/19 00:16:48;;;;;;;24.47;11.80;;;;;;;8.86;79.28;96632.50;1749378;81;27445;-87
2021/05/19 00:19:16;;;;;;;28.32;13.58;;;;;;;8.85;79.27;96636.23;1723264;81;25657;-86
2021/05/19 00:21:43;;;;;;;26.35;13.45;;;;;;;8.86;79.26;96639.23;1750100;81;25710;-87
2021/05/19 00:24:10;;;;;;;19.75;11.30;;;;;;;8.85;79.20;96634.06;1727258;81;25903;-88
2021/05/19 00:26:38;;;;;;;18.15;10.78;;;;;;;8.83;79.13;96634.28;1753334;81;25720;-87
2021/05/19 00:29:09;;;;;;;16.60;11.05;;;;;;;8.78;79.05;96630.09;1731654;81;27581;-88
2021/05/19 00:31:35;;;;;;;20.72;10.63;;;;;;;8.77;79.14;96629.79;1729030;82;25615;-87
2021/05/19 00:34:02;;;;;;;16.17;10.20;;;;;;;8.79;79.15;96631.75;1729639;82;25657;-87
2021/05/19 00:36:29;;;;;;;15.15;9.88;;;;;;;8.77;79.08;96623.58;1700221;82;26325;-87
2021/05/19 00:38:57;;;;;;;15.35;9.93;;;;;;;8.71;78.93;96621.23;1714031;82;26367;-87
2021/05/19 00:41:24;;;;;;;20.85;9.95;;;;;;;8.64;78.88;96624.50;1723005;83;27540;-88
2021/05/19 00:43:51;;;;;;;14.00;9.18;;;;;;;8.62;78.86;96620.68;1752930;81;26320;-86
2021/05/19 00:46:17;;;;;;;19.27;10.58;;;;;;;8.48;78.65;96623.16;1731817;81;25713;-86
2021/05/19 00:48:44;;;;;;;13.78;9.15;;;;;;;8.43;78.86;96628.38;1742142;81;26349;-86
2021/05/19 00:51:10;;;;;;;14.45;9.55;;;;;;;8.40;78.90;96623.94;1729726;82;26292;-86
2021/05/19 00:53:37;;;;;;;16.07;10.28;;;;;;;8.34;78.92;96620.75;1721208;82;27332;-87
2021/05/19 00:56:04;;;;;;;17.82;9.28;;;;;;;8.33;78.94;96624.52;1698975;82;25816;-87
2021/05/19 00:58:31;;;;;;;15.78;10.08;;;;;;;8.31;78.94;96626.04;1705141;82;25667;-87
2021/05/19 01:00:57;;;;;;;15.32;9.85;;;;;;;8.26;78.88;96629.36;1722710;82;27970;-87
2021/05/19 01:03:24;;;;;;;15.08;8.93;;;;;;;8.26;78.90;96630.70;1729457;82;25681;-88
2021/05/19 01:05:55;;;;;;;15.70;8.75;;;;;;;8.21;78.77;96631.86;1729652;82;27290;-85
2021/05/19 01:11:10;;;;;;;13.53;9.50;;;;;;;8.05;78.61;96628.34;1753319;81;25579;-86
2021/05/19 01:13:42;;;;;;;17.12;9.53;;;;;;;8.04;78.69;96626.69;1723370;82;26106;-86
2021/05/19 01:16:08;;;;;;;13.83;9.43;;;;;;;7.98;78.60;96622.16;1753002;81;26564;-86
2021/05/19 01:18:37;;;;;;;12.60;8.75;;;;;;;7.93;78.50;96632.74;1726365;83;27567;-87
2021/05/19 01:21:04;;;;;;;17.50;9.93;;;;;;;7.85;78.55;96626.25;1726366;83;25690;-86
2021/05/19 01:23:32;;;;;;;12.80;9.38;;;;;;;7.82;78.63;96625.35;1726404;82;25703;-86
2021/05/19 01:26:02;;;;;;;17.32;8.85;;;;;;;7.79;78.63;96632.48;1726369;83;26472;-86
2021/05/19 01:28:29;;;;;;;12.70;9.68;;;;;;;7.73;78.55;96632.01;1726531;83;25644;-86
2021/05/19 01:30:56;;;;;;;13.45;8.83;;;;;;;7.70;78.65;96633.25;1726381;83;27611;-85
2021/05/19 01:33:23;;;;;;;12.37;8.10;;;;;;;7.68;78.64;96630.45;1726551;82;25711;-86
2021/05/19 01:35:49;;;;;;;14.28;8.10;;;;;;;7.68;78.65;96638.00;1726607;83;26453;-86
2021/05/19 01:38:16;;;;;;;10.10;7.10;;;;;;;7.65;78.57;96634.39;1722903;82;25714;-85
2021/05/19 01:40:43;;;;;;;12.45;8.30;;;;;;;7.65;78.55;96631.70;1718186;83;25668;-86
2021/05/19 01:43:10;;;;;;;10.88;7.47;;;;;;;7.59;78.39;96632.56;1726602;83;27466;-86
2021/05/19 01:45:37;;;;;;;13.10;7.05;;;;;;;7.56;78.41;96642.38;1726411;82;25707;-87
2021/05/19 01:48:10;;;;;;;12.28;7.40;;;;;;;7.51;78.32;96636.28;1726559;83;25602;-86
2021/05/19 01:50:36;;;;;;;15.98;8.60;;;;;;;7.42;78.28;96638.90;1726612;83;25676;-86
2021/05/19 01:53:04;;;;;;;10.30;6.37;;;;;;;7.37;78.35;96639.20;1726426;83;25653;-85
2021/05/19 01:55:32;;;;;;;12.28;7.10;;;;;;;7.27;78.28;96642.33;1726601;83;27511;-86
2021/05/19 01:57:59;;;;;;;12.60;7.10;;;;;;;7.26;78.38;96650.06;1726655;82;25643;-86
2021/05/19 02:00:28;;;;;;;12.90;7.20;;;;;;;7.21;78.32;96647.20;1726705;83;25648;-86
2021/05/19 02:03:08;;;;;;;12.98;6.05;;;;;;;7.13;78.22;96646.87;1726556;82;25778;-84
2021/05/19 02:05:36;;;;;;;9.55;6.42;;;;;;;7.10;78.25;96647.84;1726615;83;25744;-86
2021/05/19 02:08:08;;;;;;;11.45;7.10;;;;;;;7.07;78.21;96641.53;1726667;82;27439;-87
2021/05/19 02:10:37;;;;;;;12.82;5.53;;;;;;;7.04;78.18;96644.11;1726694;83;28374;-86
2021/05/19 02:13:07;;;;;;;6.92;5.17;;;;;;;6.99;78.09;96645.78;1726479;82;26534;-86
2021/05/19 02:15:35;;;;;;;9.98;5.90;;;;;;;6.94;78.12;96648.25;1726681;82;25721;-87
2021/05/19 02:18:02;;;;;;;14.65;6.55;;;;;;;6.86;77.95;96651.46;1721926;82;25572;-86
2021/05/19 02:20:29;;;;;;;13.08;6.62;;;;;;;6.79;77.98;96647.93;1719111;82;27598;-86
2021/05/19 02:22:56;;;;;;;10.53;6.90;;;;;;;6.77;78.00;96655.35;1710611;82;25713;-86
2021/05/19 02:25:23;;;;;;;11.45;5.50;;;;;;;6.74;78.01;96658.47;1688718;82;25726;-84
2021/05/19 02:27:52;;;;;;;9.30;6.10;;;;;;;6.72;77.98;96659.19;1719170;83;25857;-86
2021/05/19 02:30:21;;;;;;;9.58;6.08;;;;;;;6.58;77.77;96664.22;1719019;82;25692;-84
2021/05/19 02:32:49;;;;;;;10.93;6.75;;;;;;;6.50;77.95;96667.10;1719070;82;27343;-86
2021/05/19 02:35:17;;;;;;;10.23;6.00;;;;;;;6.43;78.02;96667.59;1718939;82;25654;-85
2021/05/19 02:37:44;;;;;;;9.38;6.87;;;;;;;6.38;78.14;96659.34;1719054;82;25670;-85
2021/05/19 02:40:14;;;;;;;8.88;5.47;;;;;;;6.40;78.25;96670.70;1718976;83;26549;-86
2021/05/19 02:42:42;;;;;;;8.45;5.58;;;;;;;6.39;78.19;96669.05;1688497;82;25716;-86
2021/05/19 02:45:11;;;;;;;8.78;6.30;;;;;;;6.33;78.09;96664.47;1719128;82;28307;-86
2021/05/19 02:47:37;;;;;;;10.82;6.25;;;;;;;6.31;78.22;96670.55;1719035;82;25795;-85
2021/05/19 02:50:06;;;;;;;8.88;5.72;;;;;;;6.32;78.25;96664.98;1703141;83;25619;-86
2021/05/19 02:52:33;;;;;;;9.90;6.30;;;;;;;6.23;78.14;96668.06;1705497;83;26401;-84
2021/05/19 02:55:00;;;;;;;9.55;5.90;;;;;;;6.23;78.31;96667.55;1718883;83;25719;-85
2021/05/19 02:57:27;;;;;;;8.05;5.53;;;;;;;6.17;78.17;96669.68;1719002;82;26905;-86
2021/05/19 02:59:53;;;;;;;9.30;6.30;;;;;;;6.06;78.24;96669.75;1719019;82;25554;-85
2021/05/19 03:02:20;;;;;;;15.20;6.00;;;;;;;6.04;78.28;96670.46;1696684;82;25626;-85
2021/05/19 03:04:47;;;;;;;11.12;5.97;;;;;;;6.07;78.43;96679.45;1711383;82;26323;-85
2021/05/19 03:07:13;;;;;;;12.15;5.87;;;;;;;6.04;78.38;96669.13;1719083;83;25594;-86
2021/05/19 03:09:40;;;;;;;14.10;6.87;;;;;;;6.05;78.40;96667.27;1719048;82;28047;-86
2021/05/19 03:12:07;;;;;;;14.83;7.65;;;;;;;5.99;78.43;96674.27;1718874;82;25854;-85
2021/05/19 03:14:34;;;;;;;16.45;6.80;;;;;;;6.01;78.49;96676.24;1719116;83;25683;-85
2021/05/19 03:17:02;;;;;;;10.08;6.97;;;;;;;6.05;78.53;96674.80;1719079;82;25734;-85
2021/05/19 03:19:29;;;;;;;9.18;6.85;;;;;;;5.99;78.40;96672.94;1753140;81;25664;-83
2021/05/19 03:21:57;;;;;;;16.62;7.47;;;;;;;5.94;78.37;96675.88;1723146;83;28351;-85
2021/05/19 03:24:24;;;;;;;9.98;6.50;;;;;;;5.93;78.41;96675.06;1732003;81;25649;-86
2021/05/19 03:26:50;;;;;;;8.98;6.75;;;;;;;5.89;78.32;96679.18;1723218;83;25698;-85
2021/05/19 03:29:17;;;;;;;11.40;7.20;;;;;;;5.90;78.32;96678.67;1753312;81;25769;-86
2021/05/19 03:31:44;;;;;;;13.98;8.15;;;;;;;5.90;78.35;96677.33;1723367;83;25639;-85
2021/05/19 03:34:11;;;;;;;13.32;6.97;;;;;;;5.85;78.25;96689.94;1753292;81;27573;-85
2021/05/19 03:36:37;;;;;;;8.70;6.80;;;;;;;5.85;78.34;96697.97;1723072;82;26178;-85
2021/05/19 03:39:08;;;;;;;8.40;6.15;;;;;;;5.79;78.36;96687.56;1751727;81;25848;-85
2021/05/19 03:41:36;;;;;;;8.85;6.05;;;;;;;5.84;78.49;96701.67;1726827;81;26223;-85
2021/05/19 03:44:05;;;;;;;16.27;6.17;;;;;;;5.85;78.45;96693.13;1723275;83;25674;-84
2021/05/19 03:46:32;;;;;;;9.28;6.20;;;;;;;5.85;78.48;96699.31;1753152;81;28020;-84
2021/05/19 03:49:01;;;;;;;8.28;5.90;;;;;;;5.83;78.47;96692.49;1721651;83;25627;-85
2021/05/19 03:51:29;;;;;;;9.63;6.45;;;;;;;5.86;78.55;96700.14;1753163;81;25703;-85
2021/05/19 03:53:57;;;;;;;10.93;6.65;;;;;;;5.89;78.59;96705.97;1723123;82;25752;-85
2021/05/19 03:56:24;;;;;;;10.98;7.05;;;;;;;5.89;78.62;96709.98;1746422;81;25666;-84
2021/05/19 03:58:50;;;;;;;9.78;6.22;;;;;;;5.91;78.63;96715.15;1707224;83;27481;-85
2021/05/19 04:01:17;;;;;;;11.88;6.87;;;;;;;5.93;78.70;96709.88;1732009;81;25648;-84
2021/05/19 04:03:44;;;;;;;10.48;7.00;;;;;;;5.95;78.77;96719.89;1753247;81;26329;-85
2021/05/19 04:06:11;;;;;;;9.38;6.42;;;;;;;5.99;78.83;96719.81;1753229;81;25703;-85
2021/05/19 04:08:40;;;;;;;10.25;6.95;;;;;;;6.02;78.85;96720.77;1744189;81;25578;-85
2021/05/19 04:11:09;;;;;;;12.28;7.17;;;;;;;6.07;78.87;96717.47;1720427;82;27439;-86
2021/05/19 04:13:36;;;;;;;13.08;7.35;;;;;;;6.10;78.90;96725.11;1728845;82;25717;-86
2021/05/19 04:16:04;;;;;;;21.15;7.53;;;;;;;6.11;78.96;96720.90;1712818;82;25602;-87
2021/05/19 04:18:31;;;;;;;10.93;6.95;;;;;;;6.19;79.04;96723.08;1712958;82;25731;-86
2021/05/19 04:20:58;;;;;;;11.97;7.50;;;;;;;6.24;79.14;96724.66;1719270;82;25280;-87
2021/05/19 04:23:26;;;;;;;14.30;8.00;;;;;;;6.30;79.20;96722.50;1713420;82;27315;-85
2021/05/19 04:25:54;;;;;;;14.70;8.25;;;;;;;6.36;79.26;96717.69;1710499;82;25972;-86
2021/05/19 04:28:20;;;;;;;12.10;8.25;;;;;;;6.42;79.32;96724.91;1726066;82;26334;-84
2021/05/19 04:30:48;;;;;;;15.45;9.65;;;;;;;6.46;79.42;96710.91;1714260;81;25709;-86
2021/05/19 04:33:16;;;;;;;18.30;9.25;;;;;;;6.49;79.44;96721.75;1710849;83;25718;-86
2021/05/19 04:35:42;;;;;;;16.45;9.60;;;;;;;6.54;79.59;96719.27;1749499;81;27405;-86
2021/05/19 04:38:09;;;;;;;17.40;9.78;;;;;;;6.56;79.65;96721.23;1737722;81;25938;-86
2021/05/19 04:40:35;;;;;;;16.55;9.68;;;;;;;6.64;79.74;96723.72;1742062;80;25610;-86
2021/05/19 04:43:08;;;;;;;16.90;10.28;;;;;;;6.70;79.87;96721.59;1756644;81;25659;-85
2021/05/19 04:45:31;;;;;;;20.35;10.30;;;;;;;6.77;79.93;96722.41;1727227;82;25643;-86
2021/05/19 04:47:58;;;;;;;15.75;10.05;;;;;;;6.86;79.98;96719.87;1756590;81;27570;-86
2021/05/19 04:50:25;;;;;;;17.75;10.32;;;;;;;6.98;80.02;96725.97;1756473;81;25865;-86
2021/05/19 04:52:52;;;;;;;16.42;9.55;;;;;;;7.06;80.07;96719.05;1756553;81;25685;-86
2021/05/19 04:55:18;;;;;;;17.48;9.78;;;;;;;7.17;80.03;96718.42;1756723;81;26246;-86
2021/05/19 04:57:45;;;;;;;17.65;9.70;;;;;;;7.26;80.08;96709.13;1756619;81;25661;-85
2021/05/19 05:00:13;;;;;;;16.12;9.18;;;;;;;7.34;80.13;96712.96;1756667;81;27511;-86
2021/05/19 05:02:40;;;;;;;14.73;8.73;;;;;;;7.42;80.18;96719.45;1756730;81;25653;-86
2021/05/19 05:05:08;;;;;;;11.15;8.50;;;;;;;7.49;80.23;96721.59;1756561;81;25605;-86
2021/05/19 05:07:35;;;;;;;10.88;8.33;;;;;;;7.58;80.31;96720.37;1756710;81;25676;-84
2021/05/19 05:10:07;;;;;;;12.05;8.18;;;;;;;7.68;80.32;96719.11;1756668;81;25597;-86
2021/05/19 05:12:35;;;;;;;11.73;8.98;;;;;;;7.77;80.24;96725.89;1756857;81;27334;-86
2021/05/19 05:15:03;;;;;;;12.73;8.88;;;;;;;7.86;80.31;96728.14;1756478;81;25728;-86
2021/05/19 05:17:30;;;;;;;17.15;9.15;;;;;;;7.94;80.35;96729.28;1756727;81;25673;-86
2021/05/19 05:19:56;;;;;;;10.58;8.05;;;;;;;8.05;80.48;96722.94;1754164;81;26568;-86
2021/05/19 05:22:23;;;;;;;14.95;8.75;;;;;;;8.16;80.51;96716.90;1753683;81;25703;-88
2021/05/19 05:24:50;;;;;;;10.88;8.18;;;;;;;8.25;80.52;96720.47;1758937;81;27235;-87
2021/05/19 05:27:16;;;;;;;11.28;7.20;;;;;;;8.36;80.57;96722.21;1728341;82;25663;-85
2021/05/19 05:29:43;;;;;;;12.13;7.90;;;;;;;8.48;80.53;96724.53;1758881;81;25762;-86
2021/05/19 05:32:09;;;;;;;11.03;7.78;;;;;;;8.59;80.50;96719.30;1728674;82;25896;-86
2021/05/19 05:34:36;;;;;;;10.43;6.97;;;;;;;8.71;80.31;96719.44;1737671;81;26483;-86
2021/05/19 05:37:04;;;;;;;11.40;7.40;;;;;;;8.83;80.11;96720.40;1711029;82;28291;-87
2021/05/19 05:39:31;;;;;;;12.63;7.67;;;;;;;8.93;80.09;96727.50;1728269;81;25643;-87
2021/05/19 05:41:57;;;;;;;14.65;7.65;;;;;;;9.05;80.09;96724.94;1727878;81;26380;-87
2021/05/19 05:44:24;;;;;;;9.83;6.70;;;;;;;9.18;80.02;96732.05;1713512;82;25777;-87
2021/05/19 05:46:51;;;;;;;10.50;6.85;;;;;;;9.29;79.86;96735.42;1745868;81;25224;-87
2021/05/19 05:49:18;;;;;;;13.05;8.35;;;;;;;9.43;79.74;96740.97;1758978;81;28026;-89
2021/05/19 05:51:44;;;;;;;12.55;8.43;;;;;;;9.57;79.74;96743.03;1728586;82;25799;-85
2021/05/19 05:54:12;;;;;;;12.10;8.65;;;;;;;9.71;79.83;96742.70;1758951;81;25702;-85
2021/05/19 05:56:41;;;;;;;10.48;6.70;;;;;;;9.88;79.93;96739.44;1707979;82;26297;-86
2021/05/19 05:59:09;;;;;;;10.55;6.87;;;;;;;10.06;79.68;96747.53;1759023;81;25673;-86
2021/05/19 06:01:36;;;;;;;8.98;6.37;;;;;;;10.23;79.44;96747.28;1707761;82;28058;-87
2021/05/19 06:04:03;;;;;;;7.58;6.17;;;;;;;10.40;78.94;96748.83;1758785;81;25824;-86
2021/05/19 06:06:30;;;;;;;10.48;6.95;;;;;;;10.53;78.48;96750.02;1708108;82;25723;-88
2021/05/19 06:08:57;;;;;;;7.05;5.45;;;;;;;10.68;78.82;96748.27;1745306;81;25683;-82
2021/05/19 06:11:24;;;;;;;10.95;6.12;;;;;;;10.83;78.55;96753.58;1720790;82;25628;-85
2021/05/19 06:13:50;;;;;;;8.18;5.10;;;;;;;10.97;78.26;96746.64;1748417;81;27389;-87
2021/05/19 06:16:17;;;;;;;5.97;5.00;;;;;;;11.08;77.77;96743.98;1758830;81;25588;-87
2021/05/19 06:18:44;;;;;;;8.73;5.33;;;;;;;11.18;77.72;96748.29;1706515;82;25782;-84
2021/05/19 06:21:10;;;;;;;7.22;5.37;;;;;;;11.31;77.47;96744.56;1753194;81;25716;-85
2021/05/19 06:23:37;;;;;;;8.65;6.08;;;;;;;11.43;77.19;96745.93;1723011;83;25661;-87
2021/05/19 06:26:04;;;;;;;9.40;4.78;;;;;;;11.57;77.12;96741.96;1753161;81;27317;-86
2021/05/19 06:28:30;;;;;;;4.95;4.00;;;;;;;11.73;77.25;96740.42;1723146;83;25712;-87
2021/05/19 06:30:57;;;;;;;4.53;3.52;;;;;;;11.78;76.51;96741.41;1753376;81;25570;-89
2021/05/19 06:33:24;;;;;;;4.45;3.47;;;;;;;11.84;76.23;96741.80;1723184;83;26366;-87
2021/05/19 06:35:50;;;;;;;4.47;3.42;;;;;;;11.95;76.35;96741.53;1753204;81;25725;-84
2021/05/19 06:38:17;;;;;;;2.83;2.45;;;;;;;12.09;76.42;96740.20;1723040;83;28100;-87
2021/05/19 06:40:44;;;;;;;4.12;2.72;;;;;;;12.21;75.67;96733.42;1752939;81;25675;-85
2021/05/19 06:43:10;;;;;;;3.17;2.22;;;;;;;12.24;74.96;96722.13;1723196;83;25562;-88
2021/05/19 06:45:37;;;;;;;4.95;2.22;;;;;;;12.26;74.45;96734.91;1753338;81;25642;-87
2021/05/19 06:48:04;;;;;;;3.47;1.82;;;;;;;12.25;73.98;96736.78;1723237;83;25663;-87
2021/05/19 06:50:32;;;;;;;2.72;2.20;;;;;;;12.23;73.91;96728.61;1753346;81;27285;-87
2021/05/19 06:52:59;;;;;;;2.50;2.22;;;;;;;12.25;73.90;96736.78;1716868;83;25638;-89
2021/05/19 06:55:26;;;;;;;2.92;2.50;;;;;;;12.35;73.99;96742.94;1719192;82;25809;-87
2021/05/19 06:57:53;;;;;;;2.70;2.50;;;;;;;12.47;73.34;96742.38;1734927;82;25689;-88
2021/05/19 07:00:21;;;;;;;3.30;2.70;;;;;;;12.53;73.21;96738.73;1734901;82;25703;-86
2021/05/19 07:02:48;;;;;;;2.58;2.25;;;;;;;12.60;73.24;96742.64;1713146;82;27336;-83
2021/05/19 07:05:15;;;;;;;5.62;2.90;;;;;;;12.60;72.77;96739.41;1713921;82;25191;-87
2021/05/19 07:07:46;;;;;;;2.98;2.67;;;;;;;12.67;72.66;96739.28;1735013;82;25660;-86
2021/05/19 07:10:11;;;;;;;5.03;3.05;;;;;;;12.74;72.90;96728.30;1752648;81;26374;-87
2021/05/19 07:12:38;;;;;;;5.75;3.27;;;;;;;12.78;72.85;96741.13;1723346;82;25597;-88
2021/05/19 07:15:11;;;;;;;3.55;2.85;;;;;;;12.84;72.62;96742.85;1753206;81;28014;-87
2021/05/19 07:17:34;;;;;;;3.77;2.70;;;;;;;12.93;72.17;96735.16;1722293;83;25599;-89
2021/05/19 07:20:01;;;;;;;4.12;2.60;;;;;;;12.99;72.26;96724.72;1723612;81;25815;-89
2021/05/19 07:22:30;;;;;;;3.75;2.58;;;;;;;13.05;72.36;96729.68;1715430;83;26337;-87
2021/05/19 07:24:56;;;;;;;5.08;3.08;;;;;;;13.12;72.01;96736.61;1753199;81;25566;-89
2021/05/19 07:27:22;;;;;;;9.30;3.60;;;;;;;13.23;71.34;96733.58;1753264;81;26751;-89
2021/05/19 07:29:49;;;;;;;5.28;2.90;;;;;;;13.29;71.50;96723.92;1723241;83;25624;-90
2021/05/19 07:32:16;;;;;;;3.00;2.72;;;;;;;13.43;70.88;96723.61;1705543;83;25614;-88
2021/05/19 07:34:43;;;;;;;5.80;2.77;;;;;;;13.54;70.66;96722.70;1749208;81;25812;-90
2021/05/19 07:37:09;;;;;;;3.65;2.22;;;;;;;13.69;70.15;96726.48;1723374;82;25620;-88
2021/05/19 07:39:36;;;;;;;5.00;2.45;;;;;;;13.91;70.23;96723.01;1753257;81;26819;-90
2021/05/19 07:42:03;;;;;;;4.12;2.60;;;;;;;14.05;69.33;96722.95;1753411;81;25633;-90
2021/05/19 07:44:30;;;;;;;4.55;2.40;;;;;;;14.20;69.22;96725.88;1723411;83;25763;-90
2021/05/19 07:46:57;;;;;;;3.20;2.37;;;;;;;14.37;68.90;96717.67;1754021;81;26193;-90
2021/05/19 07:49:25;;;;;;;2.77;2.33;;;;;;;14.38;68.89;96717.96;1723295;83;25638;-89
2021/05/19 07:51:51;;;;;;;2.30;2.10;;;;;;;14.48;68.50;96721.40;1753223;81;27316;-91
2021/05/19 07:54:26;;;;;;;4.37;2.33;;;;;;;14.72;68.38;96720.89;1753260;81;25575;-92
2021/05/19 07:56:57;;;;;;;3.40;2.45;;;;;;;15.07;68.36;96720.98;1694658;83;25677;-89
2021/05/19 07:59:19;;;;;;;4.35;2.25;;;;;;;15.43;68.00;96714.81;1752274;81;25687;-86
2021/05/19 08:02:03;;;;;;;3.02;2.22;;;;;;;15.89;67.60;96717.09;1723685;83;25697;-92
2021/05/19 08:04:33;;;;;;;3.85;2.15;;;;;;;15.88;66.52;96709.47;1753291;81;27389;-89
2021/05/19 08:07:01;;;;;;;3.80;2.40;;;;;;;15.91;66.22;96713.03;1723175;83;25669;-86
2021/05/19 08:09:28;;;;;;;4.03;2.50;;;;;;;15.61;65.32;96715.52;1753311;81;25669;-89
2021/05/19 08:11:56;;;;;;;5.00;2.80;;;;;;;15.37;65.22;96717.19;1717027;83;25596;-86
2021/05/19 08:14:29;;;;;;;6.83;2.70;;;;;;;15.23;65.02;96723.30;1705033;82;26708;-88
2021/05/19 08:16:55;;;;;;;4.22;2.15;;;;;;;15.23;65.13;96717.86;1704910;82;32810;-86
2021/05/19 08:19:21;;;;;;;2.75;1.67;;;;;;;15.70;64.98;96710.69;1704895;82;25613;-87
2021/05/19 08:21:48;;;;;;;3.87;1.90;;;;;;;16.25;64.34;96713.52;1710478;82;25631;-88
2021/05/19 08:24:15;;;;;;;2.62;1.77;;;;;;;16.72;63.92;96708.03;1734695;82;25672;-86
2021/05/19 08:26:43;;;;;;;2.35;1.80;;;;;;;16.88;63.04;96705.64;1734745;82;25598;-88
2021/05/19 08:29:10;;;;;;;2.42;1.92;;;;;;;17.14;62.36;96699.72;1734943;82;28098;-88
2021/05/19 08:31:37;;;;;;;2.15;1.60;;;;;;;17.84;62.14;96701.41;1721781;82;25756;-89
2021/05/19 08:34:04;;;;;;;1.90;1.80;;;;;;;18.50;61.63;96694.41;1704022;82;25609;-89
2021/05/19 08:36:32;;;;;;;2.40;1.70;;;;;;;18.47;59.43;96697.18;1716513;82;26149;-89
2021/05/19 08:38:59;;;;;;;4.17;1.82;;;;;;;18.56;59.38;96696.05;1734925;82;25805;-90
2021/05/19 08:41:25;;;;;;;2.50;2.27;;;;;;;19.22;59.01;96691.62;1725568;82;27383;-88
2021/05/19 08:43:52;;;;;;;5.03;2.33;;;;;;;19.68;59.06;96701.73;1713860;82;25575;-89
2021/05/19 08:46:19;;;;;;;5.42;2.05;;;;;;;19.69;58.01;96695.95;1728295;82;25657;-87
2021/05/19 08:48:53;;;;;;;2.22;2.00;;;;;;;19.37;57.96;96692.89;1719534;82;26491;-86
2021/05/19 08:51:14;;;;;;;3.20;2.20;;;;;;;19.41;57.87;96698.08;1704043;82;25239;-88
2021/05/19 08:53:41;;;;;;;2.08;1.90;;;;;;;19.54;57.60;96694.72;1720329;82;28132;-86
2021/05/19 08:56:13;;;;;;;3.35;2.22;;;;;;;20.00;57.77;96698.44;1725400;82;25455;-88
2021/05/19 08:58:40;;;;;;;2.42;2.22;;;;;;;20.38;57.17;96696.16;1703799;83;26318;-86
2021/05/19 09:01:07;;;;;;;4.65;2.30;;;;;;;19.59;54.60;96696.03;1732030;81;26638;-82
2021/05/19 09:03:36;;;;;;;3.72;1.87;;;;;;;19.59;54.60;96696.03;1752586;81;25652;-85
2021/05/19 09:06:08;;;;;;;2.25;1.87;;;;;;;18.94;54.79;96704.11;1748078;81;27448;-87
2021/05/19 09:08:39;;;;;;;3.70;2.80;;;;;;;18.65;54.86;96701.23;1723500;81;25738;-91
2021/05/19 09:11:10;;;;;;;4.05;2.77;;;;;;;17.97;54.48;96703.58;1696412;83;25710;-89
2021/05/19 09:13:44;;;;;;;3.27;2.60;;;;;;;17.43;54.12;96701.37;1724679;82;26783;-89
2021/05/19 09:16:12;;;;;;;2.52;2.33;;;;;;;17.10;55.12;96696.42;1708094;82;25702;-88
2021/05/19 09:18:49;;;;;;;3.42;2.83;;;;;;;17.11;55.82;96693.97;1697194;83;28234;-86
2021/05/19 09:21:43;;;;;;;5.35;3.20;;;;;;;17.34;56.03;96699.45;1704771;82;25785;-87
2021/05/19 09:24:21;;;;;;;3.52;3.12;;;;;;;17.91;55.72;96693.20;1698718;82;25718;-88
2021/05/19 09:26:58;;;;;;;5.65;4.00;;;;;;;17.89;55.40;96691.83;1703662;82;25774;-88
2021/05/19 09:29:28;;;;;;;4.15;3.80;;;;;;;17.54;55.18;96692.09;1703109;82;25957;-88
2021/05/19 09:32:10;;;;;;;3.75;3.37;;;;;;;17.45;55.27;96689.64;1719266;83;28090;-86
2021/05/19 09:34:40;;;;;;;4.47;3.40;;;;;;;17.34;55.25;96693.45;1720700;82;25705;-88
2021/05/19 09:37:30;;;;;;;4.08;3.08;;;;;;;17.37;55.34;96683.38;1711541;82;25670;-88
2021/05/19 09:40:09;;;;;;;4.03;3.10;;;;;;;17.39;54.98;96693.44;1715782;82;25748;-89
2021/05/19 09:42:48;;;;;;;3.72;3.22;;;;;;;17.24;54.80;96690.72;1697173;82;25647;-89
2021/05/19 09:45:25;;;;;;;6.42;3.50;;;;;;;17.10;55.05;96692.33;1734157;82;27504;-85
2021/05/19 09:47:54;;;;;;;4.47;4.08;;;;;;;17.03;55.21;96691.75;1716293;82;25830;-88
2021/05/19 09:50:40;;;;;;;7.55;4.97;;;;;;;16.86;55.15;96700.19;1752841;81;25597;-87
2021/05/19 09:53:15;;;;;;;6.70;4.87;;;;;;;16.64;55.33;96686.77;1719814;82;26390;-88
2021/05/19 09:56:02;;;;;;;9.40;5.87;;;;;;;16.42;55.59;96692.91;1719270;82;25775;-88
2021/05/19 09:58:39;;;;;;;10.58;5.75;;;;;;;16.03;56.38;96687.80;1703418;83;26805;-88
2021/05/19 10:01:07;;;;;;;7.60;5.37;;;;;;;15.92;56.97;96694.80;1758649;81;25705;-84
2021/05/19 10:03:37;;;;;;;6.47;5.85;;;;;;;15.75;57.29;96692.23;1698488;83;25641;-87
2021/05/19 10:06:13;;;;;;;7.97;6.75;;;;;;;15.53;57.36;96694.20;1753170;81;26654;-87
2021/05/19 10:08:34;;;;;;;9.75;6.95;;;;;;;15.20;57.63;96696.66;1752196;81;25701;-87
2021/05/19 10:11:02;;;;;;;9.90;6.42;;;;;;;14.99;58.12;96696.97;1722932;82;28227;-87
2021/05/19 10:13:30;;;;;;;8.50;7.28;;;;;;;14.83;58.40;96693.83;1753069;81;25709;-86
2021/05/19 10:16:03;;;;;;;10.63;7.35;;;;;;;14.68;58.56;96699.91;1723111;82;25644;-85
2021/05/19 10:18:35;;;;;;;7.00;6.30;;;;;;;14.52;59.08;96704.86;1723754;81;25733;-88
2021/05/19 10:21:02;;;;;;;7.72;6.97;;;;;;;14.62;59.31;96699.55;1702533;82;25622;-84
2021/05/19 10:23:41;;;;;;;6.80;5.83;;;;;;;14.60;59.18;96699.83;1727798;82;27360;-87
2021/05/19 10:26:11;;;;;;;8.93;5.55;;;;;;;14.65;59.19;96702.59;1712735;82;25873;-86
2021/05/19 10:28:42;;;;;;;6.22;5.35;;;;;;;14.63;59.40;96705.27;1733367;82;25767;-87
2021/05/19 10:31:25;;;;;;;6.55;5.75;;;;;;;14.72;59.68;96705.95;1712464;82;26429;-88
2021/05/19 10:33:55;;;;;;;;;;;;;;;14.66;59.51;96711.02;1735558;82;25663;-86
2021/05/19 10:36:40;;;;;;;13.15;6.58;;;;;;;14.52;59.40;96705.69;1730766;82;27421;-86
2021/05/19 10:39:18;;;;;;;9.05;7.08;;;;;;;14.60;60.29;96703.91;1707486;83;25756;-87
2021/05/19 10:41:54;;;;;;;8.58;6.10;;;;;;;14.80;60.20;96701.13;1714510;82;26325;-87
2021/05/19 10:44:29;;;;;;;10.80;6.58;;;;;;;14.86;60.16;96691.94;1716943;83;25800;-87
2021/05/19 10:47:08;;;;;;;7.25;6.05;;;;;;;14.81;60.18;96700.05;1707032;83;25579;-87
2021/05/19 10:52:43;;;;;;;6.53;5.70;;;;;;;14.96;60.66;96700.22;1751852;81;25628;-88
2021/05/19 10:57:58;;;;;;;9.45;5.70;;;;;;;15.12;59.90;96703.35;1708678;83;25703;-88
2021/05/19 11:00:25;;;;;;;7.75;5.30;;;;;;;15.21;59.94;96705.91;1753824;81;26290;-90
2021/05/19 11:03:01;;;;;;;6.42;4.75;;;;;;;15.29;59.83;96710.88;1720550;83;28153;-83
2021/05/19 11:05:40;;;;;;;6.28;4.65;;;;;;;15.38;59.52;96712.03;1710859;83;25576;-89
2021/05/19 11:08:13;;;;;;;6.22;4.95;;;;;;;15.31;59.56;96710.62;1713222;83;25615;-88
2021/05/19 11:10:50;;;;;;;6.15;4.33;;;;;;;15.29;59.36;96709.52;1717095;82;26293;-87
2021/05/19 11:13:23;;;;;;;7.03;4.72;;;;;;;15.19;59.47;96706.70;1753813;81;25709;-86
2021/05/19 11:21:14;;;;;;;5.60;4.10;;;;;;;15.34;59.02;96706.00;1751553;81;25715;-84
2021/05/19 11:23:41;;;;;;;6.53;4.47;;;;;;;15.34;58.88;96707.36;1755241;81;26279;-82
2021/05/19 11:26:15;;;;;;;6.15;5.30;;;;;;;15.36;58.85;96706.03;1756287;81;25637;-84
2021/05/19 11:28:43;;;;;;;7.58;4.67;;;;;;;15.37;58.78;96710.39;1756215;81;27313;-87
2021/05/19 11:31:13;;;;;;;7.35;4.33;;;;;;;15.41;58.61;96699.29;1756118;81;25731;-87
2021/05/19 11:33:54;;;;;;;5.53;3.87;;;;;;;15.42;58.71;96698.21;1756472;81;25697;-87
2021/05/19 11:36:52;;;;;;;6.83;4.97;;;;;;;15.39;58.63;96697.89;1756380;81;25664;-87
2021/05/19 11:39:37;;;;;;;5.00;4.45;;;;;;;15.46;58.33;96699.31;1756151;81;25626;-84
2021/05/19 11:42:28;;;;;;;8.13;4.95;;;;;;;15.39;58.61;96696.54;1756282;81;28022;-86
2021/05/19 11:45:09;;;;;;;7.95;4.40;;;;;;;15.43;58.31;96694.95;1744883;81;25662;-88
2021/05/19 11:47:39;;;;;;;4.40;4.00;;;;;;;15.44;58.49;96702.86;1723418;82;25479;-87
2021/05/19 11:50:15;;;;;;;4.78;4.22;;;;;;;15.43;58.48;96695.77;1752980;81;26259;-86
2021/05/19 11:52:58;;;;;;;4.87;4.37;;;;;;;15.49;58.18;96687.92;1751155;81;25618;-87
2021/05/19 11:55:40;;;;;;;4.75;4.35;;;;;;;15.47;58.25;96689.25;1722462;83;27466;-87
2021/05/19 11:58:29;;;;;;;5.37;4.72;;;;;;;15.53;58.75;96691.48;1714173;83;25736;-87